New Haven, CT

3:51 PM EST on November 27, 2014 (GMT -0500)
Tweed-New Haven | Change Station
CLOSE
Current Station
Airport
Location: New Haven,
Elevation: 13 ft
Nearby Weather Stations

Elev 13 ft 41.26 °N, 72.89 °W | Updated 58 minutes ago

Overcast
Overcast
38 °F
Feels Like 34 °F
N
6
Wind Variable Wind from North

Today
High -- | Low -- °F
--% Chance of Precip.
Yesterday
High -- | Low -- °F
Precip. -- in
6:53 AM 4:24 PM
Waxing Crescent, 32% visible
Pressure 29.97 in
Visibility 2.0 miles
Clouds Mostly Cloudy 1000 ft
Mostly Cloudy 1500 ft
Overcast 2100 ft
Windchill 34 °F
Dew Point 32 °F
Humidity 79%
Rainfall 0.00 in
Snow Depth Not available.
UV 0 out of 12
Pollen .10 out of 12
Air Quality Not available.
Flu Activity Not available.
METAR KHVN 271953Z 35005KT 2SM -SN BKN010 BKN015 OVC021 03/00 A2997 RMK AO2 SLP148 P0000 T00330000

More Conditions Fewer Conditions

Pressure 29.97 in
Visibility 2.0 miles
Clouds Mostly Cloudy 1000 ft
Mostly Cloudy 1500 ft
Overcast 2100 ft
Windchill 34 °F
Dew Point 32 °F
Humidity 79%
Rainfall 0.00 in
Snow Depth Not available.
UV 0 out of 12
Pollen .10 out of 12
Air Quality Not available.
Flu Activity Not available.
METAR KHVN 271953Z 35005KT 2SM -SN BKN010 BKN015 OVC021 03/00 A2997 RMK AO2 SLP148 P0000 T00330000

More Conditions Fewer Conditions

10-Day Weather Forecast

Almanac

Astronomy

Nov. 27, 2014 Rise Set
Actual Time
Civil Twilight
Nautical Twilight
Astronomical Twilight
Moon
Length of Visible Light
Length of Day
Tomorrow will be .
, % of the Moon is Illuminated

Today's Extremes

State Highs State Lows

Community

WunderPhotos

Upload Photos

1,774,100 photos uploaded!

WunderBlogs® & News

Nearby

Air Quality

  Air Quality AQ Index Pollutant
Not available.

Snow Depth

Station Depth Elevation

Earthquake Activity

City Distance Mag. Time & Date
Minimum magnitude displayed is 2.5.

Coastal Water Temperatures

Place Temperature

Nearby Weather Stations